createdAt,value
2019-03-24T00:05:17.291Z,65.80
2019-03-24T00:11:16.559Z,64.60
2019-03-24T00:17:16.262Z,63.00
2019-03-24T00:23:16.262Z,64.20
2019-03-24T00:29:16.287Z,64.20
2019-03-24T00:35:16.243Z,64.10
2019-03-24T00:41:16.260Z,62.40
2019-03-24T00:47:16.285Z,61.80
2019-03-24T00:53:16.332Z,63.20
2019-03-24T00:59:16.388Z,60.50
2019-03-24T01:08:15.242Z,60.60
2019-03-24T01:14:15.247Z,60.00
2019-03-24T01:20:15.546Z,59.80
2019-03-24T01:26:15.232Z,58.90
2019-03-24T01:32:15.298Z,57.10
2019-03-24T01:38:14.766Z,55.60
2019-03-24T01:48:55.332Z,56.90
2019-03-24T01:54:55.323Z,55.20
2019-03-24T02:00:55.321Z,55.50
2019-03-24T02:06:55.348Z,56.50
2019-03-24T02:12:55.399Z,56.00
2019-03-24T02:18:55.353Z,55.80
2019-03-24T02:24:55.358Z,55.10
2019-03-24T02:30:55.349Z,55.70
2019-03-24T02:36:55.386Z,55.50
2019-03-24T02:42:55.401Z,55.30
2019-03-24T02:48:55.384Z,56.00
2019-03-24T02:54:55.381Z,57.70
2019-03-24T03:00:58.431Z,58.70
2019-03-24T03:06:55.392Z,58.30
2019-03-24T03:12:55.358Z,59.40
2019-03-24T03:18:55.350Z,58.90
2019-03-24T03:24:55.392Z,61.30
2019-03-24T03:30:55.383Z,61.60
2019-03-24T03:36:55.368Z,65.10
2019-03-24T03:42:55.374Z,60.20
2019-03-24T03:48:55.366Z,61.90
2019-03-24T03:54:55.392Z,63.90
2019-03-24T04:00:55.343Z,62.80
2019-03-24T04:06:55.374Z,62.60
2019-03-24T04:12:55.381Z,64.50
2019-03-24T04:18:55.357Z,64.20
2019-03-24T04:24:55.385Z,65.40
2019-03-24T04:30:55.367Z,65.80
2019-03-24T04:36:55.368Z,64.00
2019-03-24T04:42:55.377Z,61.50
2019-03-24T04:48:55.368Z,62.30
2019-03-24T04:54:55.388Z,63.00
2019-03-24T05:00:56.092Z,61.00
2019-03-24T05:06:55.424Z,60.00
2019-03-24T05:12:55.375Z,60.80
2019-03-24T05:18:55.387Z,58.60
2019-03-24T05:24:55.400Z,60.60
2019-03-24T05:30:55.383Z,59.70
2019-03-24T05:36:55.412Z,61.10
2019-03-24T05:42:55.461Z,58.10
2019-03-24T05:48:55.432Z,57.50
2019-03-24T05:54:55.433Z,59.40
2019-03-24T06:00:55.401Z,59.10
2019-03-24T06:06:55.402Z,59.60
2019-03-24T06:12:55.394Z,57.00
2019-03-24T06:18:55.382Z,57.30
2019-03-24T06:24:55.421Z,58.40
2019-03-24T06:30:55.418Z,57.10
2019-03-24T06:36:55.415Z,57.00
2019-03-24T06:42:55.382Z,58.70
2019-03-24T06:48:55.435Z,58.30
2019-03-24T06:54:55.516Z,59.60
2019-03-24T07:00:55.409Z,59.80
2019-03-24T07:06:55.417Z,56.60
2019-03-24T07:12:55.430Z,53.80
2019-03-24T07:18:55.447Z,52.30
2019-03-24T07:24:55.529Z,49.80
2019-03-24T07:30:55.420Z,50.60
2019-03-24T07:36:55.472Z,48.30
2019-03-24T07:42:55.437Z,50.60
2019-03-24T07:48:55.476Z,47.50
2019-03-24T07:54:55.429Z,44.80
2019-03-24T08:00:55.434Z,45.20
2019-03-24T08:06:55.495Z,45.00
2019-03-24T08:12:55.665Z,45.60
2019-03-24T08:18:55.467Z,44.00
2019-03-24T08:24:55.484Z,42.70
2019-03-24T08:30:55.538Z,41.80
2019-03-24T08:36:55.519Z,40.50
2019-03-24T08:42:55.451Z,40.60
2019-03-24T08:48:55.512Z,40.00
2019-03-24T08:54:55.498Z,39.20
2019-03-24T09:00:55.593Z,39.70
2019-03-24T09:06:55.491Z,38.70
2019-03-24T09:12:55.624Z,38.70
2019-03-24T09:18:55.486Z,38.00
2019-03-24T09:24:55.515Z,37.00
2019-03-24T09:30:55.503Z,38.20
2019-03-24T09:36:55.479Z,37.80
2019-03-24T09:42:55.478Z,38.00
2019-03-24T09:49:03.151Z,39.10
2019-03-24T09:54:55.495Z,39.10
2019-03-24T10:00:55.543Z,38.50
2019-03-24T10:06:55.655Z,40.40
2019-03-24T10:12:55.611Z,39.10
2019-03-24T10:18:55.669Z,39.10
2019-03-24T10:24:55.568Z,38.40
2019-03-24T10:30:55.642Z,37.90
2019-03-24T10:36:55.565Z,36.50
2019-03-24T10:42:55.627Z,38.20
2019-03-24T10:48:55.536Z,38.60
2019-03-24T10:54:55.542Z,38.90
2019-03-24T11:00:55.620Z,39.30
2019-03-24T11:06:55.644Z,37.80
2019-03-24T11:12:55.619Z,38.30
2019-03-24T11:18:55.573Z,39.50
2019-03-24T11:24:55.599Z,39.60
2019-03-24T11:30:55.617Z,39.70
2019-03-24T11:36:55.578Z,38.70
2019-03-24T11:42:56.252Z,38.90
2019-03-24T11:48:55.590Z,40.80
2019-03-24T11:54:55.594Z,38.80
2019-03-24T12:00:55.604Z,40.70
2019-03-24T12:06:55.664Z,41.40
2019-03-24T12:12:56.431Z,40.30
2019-03-24T12:18:55.608Z,40.80
2019-03-24T12:24:55.617Z,38.90
2019-03-24T12:30:55.617Z,39.60
2019-03-24T12:36:55.618Z,40.10
2019-03-24T12:42:55.666Z,38.90
2019-03-24T12:48:55.678Z,39.20
2019-03-24T12:59:53.261Z,41.90
2019-03-24T13:05:53.183Z,39.50
2019-03-24T13:11:53.487Z,39.20
2019-03-24T13:17:53.194Z,38.00
2019-03-24T13:23:53.217Z,38.90
2019-03-24T13:29:53.203Z,40.00
2019-03-24T13:35:53.186Z,38.30
2019-03-24T13:41:53.254Z,37.20
2019-03-24T13:47:53.240Z,36.20
2019-03-24T13:53:53.337Z,37.40
2019-03-24T13:59:53.281Z,37.50
2019-03-24T14:05:53.243Z,36.60
2019-03-24T14:11:53.302Z,37.50
2019-03-24T14:17:53.241Z,38.20
2019-03-24T14:23:53.358Z,36.70
2019-03-24T14:29:53.293Z,37.00
2019-03-24T14:35:54.373Z,37.60
2019-03-24T14:41:53.314Z,38.10
2019-03-24T14:47:53.266Z,39.20
2019-03-24T14:53:53.360Z,38.30
2019-03-24T14:59:53.374Z,38.70
2019-03-24T15:05:53.269Z,38.40
2019-03-24T15:11:53.360Z,39.00
2019-03-24T15:17:53.390Z,38.50
2019-03-24T15:23:53.294Z,39.90
2019-03-24T15:29:53.342Z,39.40
2019-03-24T15:35:53.319Z,39.70
2019-03-24T15:41:53.342Z,39.90
2019-03-24T15:47:53.326Z,40.90
2019-03-24T15:53:53.429Z,39.70
2019-03-24T15:59:53.389Z,39.90
2019-03-24T16:05:53.349Z,39.20
2019-03-24T16:11:53.373Z,39.90
2019-03-24T16:17:53.369Z,37.60
2019-03-24T16:23:54.678Z,36.70
2019-03-24T16:29:53.339Z,37.40
2019-03-24T16:35:53.409Z,36.00
2019-03-24T16:41:53.417Z,34.80
2019-03-24T16:47:53.368Z,34.40
2019-03-24T16:53:53.360Z,35.10
2019-03-24T16:59:53.370Z,33.50
2019-03-24T17:05:53.372Z,30.80
2019-03-24T17:11:53.390Z,29.40
2019-03-24T17:17:53.392Z,28.10
2019-03-24T17:23:53.483Z,27.80
2019-03-24T17:29:53.355Z,26.90
2019-03-24T17:35:53.501Z,26.60
2019-03-24T17:41:53.402Z,27.50
2019-03-24T17:47:53.391Z,27.40
2019-03-24T17:53:54.457Z,25.20
2019-03-24T17:59:53.444Z,24.30
2019-03-24T18:05:54.495Z,22.50
2019-03-24T18:11:53.403Z,21.70
2019-03-24T18:17:53.470Z,20.20
2019-03-24T18:23:53.403Z,16.40
2019-03-24T18:29:53.453Z,13.00
2019-03-24T18:35:53.596Z,12.10
2019-03-24T18:41:53.546Z,12.00
2019-03-24T18:47:53.707Z,12.70
2019-03-24T18:53:53.445Z,13.00
2019-03-24T18:59:53.575Z,12.80
2019-03-24T19:05:53.458Z,12.60
2019-03-24T19:11:53.440Z,12.80
2019-03-24T19:17:53.476Z,13.40
2019-03-24T19:23:55.953Z,14.80
2019-03-24T19:29:54.914Z,14.40
2019-03-24T19:35:53.538Z,14.30
2019-03-24T19:41:53.465Z,13.90
2019-03-24T19:47:53.495Z,16.30
2019-03-24T19:53:53.494Z,14.00
2019-03-24T19:59:53.587Z,18.10
2019-03-24T20:05:53.522Z,18.80
2019-03-24T20:11:53.642Z,16.80
2019-03-24T20:17:53.585Z,16.70
2019-03-24T20:23:53.506Z,21.30
2019-03-24T20:29:53.744Z,18.00
2019-03-24T20:35:53.578Z,15.90
2019-03-24T20:41:53.473Z,16.80
2019-03-24T20:47:53.705Z,17.30
2019-03-24T20:53:53.761Z,18.40
2019-03-24T20:59:53.551Z,17.90
2019-03-24T21:05:53.949Z,17.70
2019-03-24T21:11:54.169Z,19.50
2019-03-24T21:17:53.815Z,19.20
2019-03-24T21:23:53.558Z,19.50
2019-03-24T21:29:53.618Z,19.00
2019-03-24T21:35:53.562Z,18.60
2019-03-24T21:41:55.068Z,19.80
2019-03-24T21:47:53.774Z,19.10
2019-03-24T21:53:55.067Z,19.40
2019-03-24T21:59:53.690Z,19.40
2019-03-24T22:05:53.556Z,19.90
2019-03-24T22:11:53.610Z,19.30
2019-03-24T22:17:53.585Z,19.30
2019-03-24T22:23:53.615Z,18.20
2019-03-24T22:29:53.615Z,19.50
2019-03-24T22:35:53.699Z,19.60
2019-03-24T22:41:53.663Z,18.50
2019-03-24T22:47:53.704Z,17.90
2019-03-24T22:54:02.954Z,18.70
2019-03-24T22:59:53.698Z,16.70
2019-03-24T23:05:53.564Z,15.80
2019-03-24T23:11:55.140Z,15.70
2019-03-24T23:17:53.643Z,16.30
2019-03-24T23:23:53.629Z,16.40
2019-03-24T23:29:53.636Z,14.10
2019-03-24T23:35:53.618Z,13.40
2019-03-24T23:41:53.622Z,13.60
2019-03-24T23:47:53.740Z,13.70
2019-03-24T23:53:54.982Z,13.30
2019-03-24T23:59:53.617Z,14.10
